createdAt,value
2017-05-22T00:00:30.199Z,0
2017-05-22T00:01:10.786Z,0
2017-05-22T00:01:51.370Z,0
2017-05-22T00:02:31.968Z,0
2017-05-22T00:03:12.568Z,0
2017-05-22T00:03:53.178Z,0
2017-05-22T00:04:33.772Z,0
2017-05-22T00:05:14.365Z,0
2017-05-22T00:05:54.959Z,0
2017-05-22T00:06:35.542Z,0
2017-05-22T00:07:16.135Z,0
2017-05-22T00:07:56.725Z,0
2017-05-22T00:08:37.311Z,0
2017-05-22T00:09:17.901Z,0
2017-05-22T00:09:58.485Z,0
2017-05-22T00:10:39.091Z,0
2017-05-22T00:11:19.678Z,0
2017-05-22T00:12:00.262Z,0
2017-05-22T00:12:40.867Z,0
2017-05-22T00:13:21.435Z,0
2017-05-22T00:14:02.012Z,0
2017-05-22T00:14:42.578Z,0
2017-05-22T00:15:23.156Z,0
2017-05-22T00:16:03.743Z,0
2017-05-22T00:16:44.327Z,0
2017-05-22T00:17:24.913Z,0
2017-05-22T00:18:05.479Z,0
2017-05-22T00:18:46.052Z,0
2017-05-22T00:19:26.649Z,0
2017-05-22T00:20:07.241Z,0
2017-05-22T00:20:47.817Z,0
2017-05-22T00:21:28.392Z,0
2017-05-22T00:22:09.003Z,0
2017-05-22T00:22:49.627Z,0
2017-05-22T00:23:30.199Z,0
2017-05-22T00:24:10.773Z,0
2017-05-22T00:24:51.369Z,0
2017-05-22T00:25:31.941Z,0
2017-05-22T00:26:12.533Z,0
2017-05-22T00:26:53.101Z,0
2017-05-22T00:27:33.669Z,0
2017-05-22T00:28:14.246Z,0
2017-05-22T00:28:54.853Z,0
2017-05-22T00:29:35.447Z,0
2017-05-22T00:30:16.038Z,0
2017-05-22T00:30:56.615Z,0
2017-05-22T00:31:37.199Z,0
2017-05-22T00:32:17.776Z,0
2017-05-22T00:32:58.378Z,0
2017-05-22T00:33:38.978Z,0
2017-05-22T00:34:19.568Z,0
2017-05-22T00:35:00.163Z,0
2017-05-22T00:35:40.758Z,0
2017-05-22T00:36:21.337Z,0
2017-05-22T00:37:01.925Z,0
2017-05-22T00:37:42.539Z,0
2017-05-22T00:38:23.133Z,0
2017-05-22T00:39:03.716Z,0
2017-05-22T00:39:44.297Z,0
2017-05-22T00:40:24.867Z,0
2017-05-22T00:41:05.441Z,0
2017-05-22T00:41:46.014Z,0
2017-05-22T00:42:26.595Z,0
2017-05-22T00:43:07.186Z,0
2017-05-22T00:43:47.813Z,0
2017-05-22T00:44:28.375Z,0
2017-05-22T00:45:08.992Z,0
2017-05-22T00:45:49.590Z,0
2017-05-22T00:46:30.167Z,0
2017-05-22T00:47:10.754Z,0
2017-05-22T00:47:51.333Z,0
2017-05-22T00:48:35.467Z,0
2017-05-22T00:50:53.445Z,0
2017-05-22T00:51:34.005Z,0
2017-05-22T00:52:14.582Z,0
2017-05-22T00:52:55.165Z,0
2017-05-22T00:53:35.737Z,0
2017-05-22T00:54:16.313Z,0
2017-05-22T00:54:56.987Z,0
2017-05-22T00:55:37.501Z,0
2017-05-22T00:56:18.065Z,0
2017-05-22T00:56:58.655Z,0
2017-05-22T00:57:39.234Z,0
2017-05-22T00:58:19.800Z,0
2017-05-22T00:59:00.389Z,0
2017-05-22T00:59:40.958Z,0
2017-05-22T01:00:21.551Z,0
2017-05-22T01:01:02.134Z,0
2017-05-22T01:01:42.715Z,0
2017-05-22T01:02:23.285Z,0
2017-05-22T01:03:03.863Z,0
2017-05-22T01:03:44.466Z,0
2017-05-22T01:04:25.052Z,0
2017-05-22T01:05:05.637Z,0
2017-05-22T01:05:46.210Z,0
2017-05-22T01:06:26.776Z,0
2017-05-22T01:07:07.465Z,0
2017-05-22T01:07:48.025Z,0
2017-05-22T01:08:28.621Z,0
2017-05-22T01:09:09.212Z,0
2017-05-22T01:09:49.795Z,0
2017-05-22T01:10:30.388Z,0
2017-05-22T01:11:10.989Z,0
2017-05-22T01:11:51.569Z,0
2017-05-22T01:12:32.146Z,0
2017-05-22T01:13:12.755Z,0
2017-05-22T01:13:53.346Z,0
2017-05-22T01:14:33.921Z,0
2017-05-22T01:15:14.533Z,0
2017-05-22T01:15:55.112Z,0
2017-05-22T01:16:35.693Z,0
2017-05-22T01:17:16.261Z,0
2017-05-22T01:17:56.833Z,0
2017-05-22T01:18:37.467Z,0
2017-05-22T01:19:18.040Z,0
2017-05-22T01:19:58.607Z,0
2017-05-22T01:20:39.194Z,0
2017-05-22T01:21:19.773Z,0
2017-05-22T01:22:00.360Z,0
2017-05-22T01:22:40.962Z,0
2017-05-22T01:23:21.524Z,0
2017-05-22T01:24:02.100Z,0
2017-05-22T01:24:42.680Z,0
2017-05-22T01:25:23.277Z,0
2017-05-22T01:26:03.932Z,0
2017-05-22T01:26:44.511Z,0
2017-05-22T01:27:25.099Z,0
2017-05-22T01:28:05.683Z,0
2017-05-22T01:28:46.271Z,0
2017-05-22T01:29:26.869Z,0
2017-05-22T01:30:07.479Z,0
2017-05-22T01:30:48.067Z,0
2017-05-22T01:31:28.654Z,0
2017-05-22T01:32:09.271Z,0
2017-05-22T01:32:49.839Z,0
2017-05-22T01:33:30.398Z,0
2017-05-22T01:34:10.984Z,0
2017-05-22T01:34:51.574Z,0
2017-05-22T01:35:32.151Z,0
2017-05-22T01:36:12.738Z,0
2017-05-22T01:36:53.330Z,0
2017-05-22T01:37:33.919Z,0
2017-05-22T01:38:14.494Z,0
2017-05-22T01:38:55.085Z,0
2017-05-22T01:39:35.732Z,0
2017-05-22T01:40:16.324Z,0
2017-05-22T01:40:56.898Z,0
2017-05-22T01:41:37.491Z,0
2017-05-22T01:42:18.081Z,0
2017-05-22T01:42:58.655Z,0
2017-05-22T01:43:39.241Z,0
2017-05-22T01:44:19.834Z,0
2017-05-22T01:45:00.425Z,0
2017-05-22T01:45:41.000Z,0
2017-05-22T01:46:21.588Z,0
2017-05-22T01:47:02.174Z,0
2017-05-22T01:47:42.789Z,0
2017-05-22T01:48:23.363Z,0
2017-05-22T01:49:03.953Z,0
2017-05-22T01:49:44.565Z,0
2017-05-22T01:50:25.158Z,0
2017-05-22T01:51:05.760Z,0
2017-05-22T01:51:46.349Z,0
2017-05-22T01:52:26.941Z,0
2017-05-22T01:53:07.509Z,0
2017-05-22T01:53:48.073Z,0
2017-05-22T01:54:28.639Z,0
2017-05-22T01:55:09.224Z,0
2017-05-22T01:55:49.896Z,0
2017-05-22T01:56:30.488Z,0
2017-05-22T01:57:11.051Z,0
2017-05-22T01:57:51.618Z,0
2017-05-22T01:58:32.228Z,0
2017-05-22T01:59:12.786Z,0
2017-05-22T01:59:53.415Z,0
2017-05-22T02:00:33.977Z,0
2017-05-22T02:01:14.541Z,0
2017-05-22T02:01:55.128Z,0
2017-05-22T02:02:35.711Z,0
2017-05-22T02:03:16.262Z,0
2017-05-22T02:03:56.837Z,0
2017-05-22T02:04:37.408Z,0
2017-05-22T02:05:18.001Z,0
2017-05-22T02:05:58.590Z,0
2017-05-22T02:06:39.184Z,0
2017-05-22T02:07:19.774Z,0
2017-05-22T02:08:00.399Z,0
2017-05-22T02:08:40.938Z,0
2017-05-22T02:09:21.530Z,0
2017-05-22T02:10:02.104Z,0
2017-05-22T02:10:42.722Z,0
2017-05-22T02:11:23.360Z,0
2017-05-22T02:12:03.970Z,0
2017-05-22T02:12:44.576Z,0
2017-05-22T02:13:25.150Z,0
2017-05-22T02:14:05.777Z,0
2017-05-22T02:14:46.360Z,0
2017-05-22T02:15:26.938Z,0
2017-05-22T02:16:07.526Z,0
2017-05-22T02:16:48.146Z,0
2017-05-22T02:17:28.754Z,0
2017-05-22T02:18:09.325Z,0
2017-05-22T02:18:49.893Z,0
2017-05-22T02:19:30.472Z,0
2017-05-22T02:20:11.060Z,0
2017-05-22T02:20:51.637Z,0
2017-05-22T02:21:32.201Z,0
2017-05-22T02:22:12.805Z,0
2017-05-22T02:22:53.367Z,0
2017-05-22T02:23:33.937Z,0
2017-05-22T02:24:14.535Z,0
2017-05-22T02:24:55.118Z,0
2017-05-22T02:25:35.689Z,0
2017-05-22T02:26:16.259Z,0
2017-05-22T02:26:56.850Z,0
2017-05-22T02:27:37.426Z,0
2017-05-22T02:28:18.032Z,0
2017-05-22T02:28:58.645Z,0
2017-05-22T02:29:39.254Z,0
2017-05-22T02:30:19.821Z,0
2017-05-22T02:31:00.399Z,0
2017-05-22T02:31:40.984Z,0
2017-05-22T02:32:21.580Z,0
2017-05-22T02:33:02.192Z,0
2017-05-22T02:33:42.754Z,0
2017-05-22T02:34:23.332Z,0
2017-05-22T02:35:03.910Z,0
2017-05-22T02:35:44.486Z,0
2017-05-22T02:36:25.095Z,0
2017-05-22T02:37:05.680Z,0
2017-05-22T02:37:46.309Z,0
2017-05-22T02:38:26.887Z,0
2017-05-22T02:39:07.485Z,0
2017-05-22T02:39:48.038Z,0
2017-05-22T02:40:28.628Z,0
2017-05-22T02:41:09.250Z,0
2017-05-22T02:41:49.836Z,0
2017-05-22T02:42:30.482Z,0
2017-05-22T02:43:11.039Z,0
2017-05-22T02:43:51.651Z,0
2017-05-22T02:44:32.232Z,0
2017-05-22T02:45:12.834Z,0
2017-05-22T02:45:53.434Z,0
2017-05-22T02:46:34.063Z,0
2017-05-22T02:47:14.638Z,0
2017-05-22T02:47:55.251Z,0
2017-05-22T02:48:35.847Z,0
2017-05-22T02:49:16.419Z,0
2017-05-22T02:49:57.012Z,0
2017-05-22T02:50:37.602Z,0
2017-05-22T02:51:18.184Z,0
2017-05-22T02:51:58.799Z,0
2017-05-22T02:52:39.393Z,0
2017-05-22T02:53:20.004Z,0
2017-05-22T02:54:00.613Z,0
2017-05-22T02:54:41.192Z,0
2017-05-22T02:55:21.806Z,0
2017-05-22T02:56:02.396Z,0
2017-05-22T02:56:42.963Z,0
2017-05-22T02:57:23.518Z,0
2017-05-22T02:58:04.105Z,0
2017-05-22T02:58:44.683Z,0
2017-05-22T02:59:25.273Z,0
2017-05-22T03:00:05.865Z,0
2017-05-22T03:00:46.431Z,0
2017-05-22T03:01:27.080Z,0
2017-05-22T03:02:07.613Z,0
2017-05-22T03:02:48.233Z,0
2017-05-22T03:03:28.817Z,0
2017-05-22T03:04:09.408Z,0
2017-05-22T03:04:50.007Z,0
2017-05-22T03:05:30.586Z,0
2017-05-22T03:06:11.184Z,0
2017-05-22T03:06:51.759Z,0
2017-05-22T03:07:32.352Z,0
2017-05-22T03:08:12.989Z,0
2017-05-22T03:08:53.555Z,0
2017-05-22T03:09:34.135Z,0
2017-05-22T03:10:14.721Z,0
2017-05-22T03:10:55.309Z,0
2017-05-22T03:11:35.886Z,5
2017-05-22T03:12:16.461Z,5
2017-05-22T03:12:57.061Z,5
2017-05-22T03:13:37.638Z,5
2017-05-22T03:14:18.224Z,5
2017-05-22T03:14:58.797Z,5
2017-05-22T03:15:39.396Z,5
2017-05-22T03:16:19.971Z,5
2017-05-22T03:17:00.593Z,5
2017-05-22T03:17:41.245Z,5
2017-05-22T03:18:21.816Z,5
2017-05-22T03:19:02.397Z,5
2017-05-22T03:19:42.966Z,5
2017-05-22T03:20:23.564Z,5
2017-05-22T03:21:04.156Z,5
2017-05-22T03:21:44.733Z,5
2017-05-22T03:22:25.302Z,5
2017-05-22T03:23:05.892Z,5
2017-05-22T03:23:46.498Z,5
2017-05-22T03:24:27.074Z,5
2017-05-22T03:25:07.660Z,5
2017-05-22T03:25:48.261Z,5
2017-05-22T03:26:28.867Z,5
2017-05-22T03:27:09.450Z,5
2017-05-22T03:27:50.041Z,10
2017-05-22T03:28:30.656Z,10
2017-05-22T03:29:11.226Z,10
2017-05-22T03:29:51.810Z,10
2017-05-22T03:30:32.389Z,10
2017-05-22T03:31:12.980Z,10
2017-05-22T03:31:53.557Z,10
2017-05-22T03:32:34.140Z,10
2017-05-22T03:33:14.717Z,10
2017-05-22T03:33:55.279Z,10
2017-05-22T03:34:35.859Z,10
2017-05-22T03:35:16.449Z,10
2017-05-22T03:35:57.055Z,10
2017-05-22T03:36:37.649Z,10
2017-05-22T03:37:18.235Z,10
2017-05-22T03:37:58.821Z,10
2017-05-22T03:38:39.394Z,10
2017-05-22T03:39:20.016Z,15
2017-05-22T03:40:00.631Z,15
2017-05-22T03:40:41.222Z,15
2017-05-22T03:41:21.788Z,15
2017-05-22T03:42:02.379Z,15
2017-05-22T03:42:42.946Z,15
2017-05-22T03:43:23.527Z,15
2017-05-22T03:44:04.111Z,15
2017-05-22T03:44:44.690Z,15
2017-05-22T03:45:25.275Z,15
2017-05-22T03:46:05.861Z,15
2017-05-22T03:46:46.441Z,20
2017-05-22T03:47:27.040Z,20
2017-05-22T03:48:07.606Z,20
2017-05-22T03:48:48.212Z,20
2017-05-22T03:49:28.822Z,20
2017-05-22T03:50:09.393Z,20
2017-05-22T03:50:49.965Z,20
2017-05-22T03:51:30.554Z,20
2017-05-22T03:52:11.132Z,20
2017-05-22T03:52:51.739Z,20
2017-05-22T03:53:32.336Z,20
2017-05-22T03:54:12.939Z,20
2017-05-22T03:54:53.561Z,20
2017-05-22T03:55:34.140Z,20
2017-05-22T03:56:14.723Z,20
2017-05-22T03:56:55.313Z,20
2017-05-22T03:57:35.930Z,20
2017-05-22T03:58:16.490Z,20
2017-05-22T03:58:57.082Z,20
2017-05-22T03:59:37.652Z,25
2017-05-22T04:00:18.232Z,25
2017-05-22T04:00:58.820Z,25
2017-05-22T04:01:39.413Z,25
2017-05-22T04:02:20.014Z,25
2017-05-22T04:03:00.641Z,25
2017-05-22T04:03:41.218Z,25
2017-05-22T04:04:21.807Z,25
2017-05-22T04:05:02.406Z,25
2017-05-22T04:05:43.006Z,25
2017-05-22T04:06:23.591Z,25
2017-05-22T04:07:04.191Z,25
2017-05-22T04:07:44.767Z,25
2017-05-22T04:08:25.401Z,25
2017-05-22T04:09:05.985Z,25
2017-05-22T04:09:46.583Z,30
2017-05-22T04:10:27.168Z,30
2017-05-22T04:11:07.753Z,30
2017-05-22T04:11:48.368Z,30
2017-05-22T04:12:28.977Z,30
2017-05-22T04:13:09.562Z,30
2017-05-22T04:13:50.174Z,30
2017-05-22T04:14:30.782Z,30
2017-05-22T04:15:11.370Z,30
2017-05-22T04:15:51.956Z,30
2017-05-22T04:16:32.550Z,30
2017-05-22T04:17:13.140Z,30
2017-05-22T04:17:53.707Z,30
2017-05-22T04:18:34.303Z,30
2017-05-22T04:19:14.901Z,30
2017-05-22T04:19:55.510Z,30
2017-05-22T04:20:36.204Z,30
2017-05-22T04:21:16.770Z,35
2017-05-22T04:21:57.359Z,35
2017-05-22T04:22:37.941Z,35
2017-05-22T04:23:18.508Z,35
2017-05-22T04:23:59.085Z,35
2017-05-22T04:24:39.685Z,35
2017-05-22T04:25:20.296Z,35
2017-05-22T04:26:00.889Z,35
2017-05-22T04:26:41.462Z,35
2017-05-22T04:27:22.035Z,35
2017-05-22T04:28:02.647Z,35
2017-05-22T04:28:43.214Z,40
2017-05-22T04:29:24.329Z,40
2017-05-22T04:30:06.564Z,40
2017-05-22T04:30:49.328Z,40
2017-05-22T04:31:31.823Z,40
2017-05-22T04:32:15.014Z,40
2017-05-22T04:32:58.827Z,40
2017-05-22T04:33:42.328Z,40
2017-05-22T04:34:24.531Z,40
2017-05-22T04:35:08.440Z,40
2017-05-22T04:35:52.329Z,40
2017-05-22T04:36:35.439Z,40
2017-05-22T04:37:18.553Z,40
2017-05-22T04:37:59.155Z,40
2017-05-22T04:38:39.718Z,40
2017-05-22T04:39:20.368Z,40
2017-05-22T04:40:00.966Z,45
2017-05-22T04:40:41.551Z,45
2017-05-22T04:41:22.146Z,45
2017-05-22T04:42:02.737Z,45
2017-05-22T04:42:43.324Z,45
2017-05-22T04:43:23.901Z,45
2017-05-22T04:44:04.515Z,45
2017-05-22T04:44:45.143Z,50
2017-05-22T04:45:25.735Z,50
2017-05-22T04:46:06.331Z,50
2017-05-22T04:46:46.932Z,55
2017-05-22T04:47:27.551Z,55
2017-05-22T04:48:08.136Z,55
2017-05-22T04:48:48.744Z,60
2017-05-22T04:49:29.393Z,65
2017-05-22T04:50:10.018Z,65
2017-05-22T04:50:50.587Z,70
2017-05-22T04:51:31.174Z,70
2017-05-22T04:52:11.759Z,75
2017-05-22T04:52:52.342Z,80
2017-05-22T04:53:32.970Z,85
2017-05-22T04:54:13.587Z,80
2017-05-22T04:54:54.203Z,85
2017-05-22T04:55:34.785Z,90
2017-05-22T04:56:15.417Z,90
2017-05-22T04:56:56.395Z,90
2017-05-22T04:57:36.960Z,95
2017-05-22T04:58:17.564Z,95
2017-05-22T04:58:58.159Z,100
2017-05-22T04:59:38.730Z,100
2017-05-22T05:00:19.329Z,105
2017-05-22T05:00:59.950Z,105
2017-05-22T05:01:40.520Z,105
2017-05-22T05:02:21.490Z,105
2017-05-22T05:03:02.132Z,110
2017-05-22T05:03:42.728Z,110
2017-05-22T05:04:23.368Z,110
2017-05-22T05:05:03.965Z,115
2017-05-22T05:05:44.546Z,115
2017-05-22T05:06:25.112Z,115
2017-05-22T05:07:05.720Z,115
2017-05-22T05:07:46.296Z,120
2017-05-22T05:08:26.909Z,120
2017-05-22T05:09:07.472Z,120
2017-05-22T05:09:48.054Z,125
2017-05-22T05:10:28.655Z,125
2017-05-22T05:11:09.235Z,130
2017-05-22T05:11:49.843Z,130
2017-05-22T05:12:30.430Z,130
2017-05-22T05:13:11.021Z,135
2017-05-22T05:13:51.621Z,130
2017-05-22T05:14:32.232Z,135
2017-05-22T05:15:12.808Z,135
2017-05-22T05:15:53.371Z,140
2017-05-22T05:16:33.941Z,140
2017-05-22T05:17:14.519Z,140
2017-05-22T05:17:55.107Z,145
2017-05-22T05:18:35.679Z,145
2017-05-22T05:19:16.282Z,155
2017-05-22T05:19:56.876Z,150
2017-05-22T05:20:37.444Z,155
2017-05-22T05:21:18.424Z,155
2017-05-22T05:21:59.003Z,160
2017-05-22T05:22:39.577Z,160
2017-05-22T05:23:20.154Z,165
2017-05-22T05:24:00.742Z,165
2017-05-22T05:24:41.308Z,165
2017-05-22T05:25:21.890Z,170
2017-05-22T05:26:02.466Z,175
2017-05-22T05:26:43.052Z,180
2017-05-22T05:27:23.628Z,335
2017-05-22T05:28:04.242Z,600
2017-05-22T05:28:44.841Z,795
2017-05-22T05:29:28.552Z,990
2017-05-22T05:30:09.122Z,1395
2017-05-22T05:30:49.738Z,1420
2017-05-22T05:31:30.339Z,1425
2017-05-22T05:32:10.907Z,1405
2017-05-22T05:32:51.494Z,1380
2017-05-22T05:33:32.086Z,1040
2017-05-22T05:34:12.676Z,800
2017-05-22T05:34:53.255Z,900
2017-05-22T05:35:33.844Z,685
2017-05-22T05:36:14.444Z,945
2017-05-22T05:36:55.043Z,1040
2017-05-22T05:37:35.632Z,1150
2017-05-22T05:38:16.209Z,1120
2017-05-22T05:38:56.792Z,1220
2017-05-22T05:39:37.373Z,1325
2017-05-22T05:40:17.993Z,1390
2017-05-22T05:40:58.618Z,1390
2017-05-22T05:41:39.203Z,1330
2017-05-22T05:42:19.793Z,1190
2017-05-22T05:43:00.386Z,1185
2017-05-22T05:43:40.993Z,1350
2017-05-22T05:44:24.301Z,1495
2017-05-22T05:45:06.464Z,1620
2017-05-22T05:45:50.302Z,1620
2017-05-22T05:46:34.352Z,1625
2017-05-22T05:47:18.358Z,1675
2017-05-22T05:47:58.969Z,1475
2017-05-22T05:48:39.555Z,1315
2017-05-22T05:49:20.141Z,1195
2017-05-22T05:50:00.724Z,1110
2017-05-22T05:50:41.345Z,1035
2017-05-22T05:51:21.963Z,755
2017-05-22T05:52:02.558Z,1035
2017-05-22T05:52:43.152Z,1380
2017-05-22T05:53:23.726Z,1420
2017-05-22T05:54:04.307Z,1650
2017-05-22T05:54:44.905Z,1705
2017-05-22T05:55:25.475Z,1475
2017-05-22T05:56:06.055Z,1175
2017-05-22T05:56:46.670Z,915
2017-05-22T05:57:27.250Z,1040
2017-05-22T05:58:07.862Z,985
2017-05-22T05:58:48.439Z,790
2017-05-22T05:59:29.016Z,635
2017-05-22T06:00:09.610Z,720
2017-05-22T06:00:50.209Z,900
2017-05-22T06:01:30.816Z,865
2017-05-22T06:02:11.385Z,1060
2017-05-22T06:02:51.953Z,1270
2017-05-22T06:03:32.530Z,1240
2017-05-22T06:04:13.125Z,1045
2017-05-22T06:04:53.688Z,1080
2017-05-22T06:05:34.276Z,1445
2017-05-22T06:06:14.893Z,1350
2017-05-22T06:06:55.475Z,1275
2017-05-22T06:07:36.090Z,1240
2017-05-22T06:08:16.673Z,1170
2017-05-22T06:08:57.290Z,1250
2017-05-22T06:09:37.914Z,910
2017-05-22T06:10:18.507Z,1030
2017-05-22T06:10:59.089Z,1025
2017-05-22T06:11:39.763Z,880
2017-05-22T06:12:20.273Z,945
2017-05-22T06:13:00.851Z,1055
2017-05-22T06:13:41.453Z,850
2017-05-22T06:14:22.057Z,935
2017-05-22T06:15:02.684Z,700
2017-05-22T06:15:43.295Z,580
2017-05-22T06:16:23.869Z,740
2017-05-22T06:17:04.457Z,940
2017-05-22T06:17:45.090Z,810
2017-05-22T06:18:25.707Z,855
2017-05-22T06:19:06.292Z,795
2017-05-22T06:19:46.937Z,810
2017-05-22T06:20:27.516Z,975
2017-05-22T06:21:08.151Z,910
2017-05-22T06:21:48.774Z,765
2017-05-22T06:22:29.416Z,965
2017-05-22T06:23:09.995Z,1125
2017-05-22T06:23:50.611Z,1215
2017-05-22T06:24:31.174Z,1290
2017-05-22T06:25:11.781Z,1175
2017-05-22T06:25:52.380Z,1195
2017-05-22T06:26:32.975Z,1135
2017-05-22T06:27:13.590Z,1205
2017-05-22T06:27:54.179Z,1265
2017-05-22T06:28:34.762Z,1425
2017-05-22T06:29:15.347Z,1480
2017-05-22T06:29:55.938Z,1685
2017-05-22T06:30:36.535Z,1650
2017-05-22T06:31:17.137Z,1655
2017-05-22T06:31:57.737Z,1815
2017-05-22T06:32:38.316Z,1835
2017-05-22T06:33:18.902Z,1860
2017-05-22T06:33:59.515Z,1845
2017-05-22T06:34:40.118Z,1870
2017-05-22T06:35:20.748Z,1855
2017-05-22T06:36:01.385Z,1845
2017-05-22T06:36:42.028Z,1780
2017-05-22T06:37:22.628Z,1755
2017-05-22T06:38:03.209Z,1765
2017-05-22T06:38:43.858Z,1730
2017-05-22T06:39:24.459Z,1520
2017-05-22T06:40:05.110Z,1250
2017-05-22T06:40:45.723Z,1295
2017-05-22T06:41:26.324Z,1565
2017-05-22T06:42:06.969Z,1735
2017-05-22T06:42:47.569Z,1805
2017-05-22T06:43:28.168Z,1765
2017-05-22T06:44:08.756Z,1805
2017-05-22T06:44:49.358Z,1865
2017-05-22T06:45:29.979Z,1885
2017-05-22T06:46:10.583Z,1920
2017-05-22T06:46:51.374Z,1865
2017-05-22T06:47:31.974Z,1875
2017-05-22T06:48:12.595Z,1860
2017-05-22T06:48:53.190Z,1860
2017-05-22T06:49:33.852Z,1820
2017-05-22T06:50:14.427Z,1875
2017-05-22T06:50:55.029Z,1940
2017-05-22T06:51:35.601Z,1945
2017-05-22T06:52:16.709Z,1925
2017-05-22T06:53:00.832Z,1920
2017-05-22T06:53:42.832Z,1910
2017-05-22T06:54:25.779Z,1885
2017-05-22T06:55:09.248Z,1800
2017-05-22T06:55:50.976Z,1840
2017-05-22T06:56:31.557Z,1875
2017-05-22T06:57:12.169Z,1890
2017-05-22T06:57:52.769Z,1945
2017-05-22T06:58:34.099Z,1840
2017-05-22T06:59:14.685Z,1755
2017-05-22T06:59:55.286Z,1720
2017-05-22T07:00:35.927Z,1725
2017-05-22T07:01:16.541Z,1720
2017-05-22T07:01:57.129Z,1700
2017-05-22T07:02:37.716Z,1620
2017-05-22T07:03:18.303Z,1535
2017-05-22T07:03:58.897Z,1445
2017-05-22T07:04:39.486Z,1410
2017-05-22T07:05:20.097Z,1380
2017-05-22T07:06:00.673Z,1315
2017-05-22T07:06:41.253Z,1170
2017-05-22T07:07:21.851Z,1055
2017-05-22T07:08:02.446Z,1005
2017-05-22T07:08:43.054Z,925
2017-05-22T07:09:23.635Z,895
2017-05-22T07:10:04.233Z,865
2017-05-22T07:10:44.844Z,815
2017-05-22T07:11:25.491Z,750
2017-05-22T07:12:06.128Z,690
2017-05-22T07:12:46.855Z,675
2017-05-22T07:13:27.482Z,660
2017-05-22T07:14:08.092Z,635
2017-05-22T07:14:48.671Z,605
2017-05-22T07:15:29.255Z,590
2017-05-22T07:16:09.849Z,580
2017-05-22T07:16:50.458Z,580
2017-05-22T07:17:31.085Z,580
2017-05-22T07:18:11.712Z,570
2017-05-22T07:18:52.298Z,565
2017-05-22T07:19:32.891Z,560
2017-05-22T07:20:13.541Z,560
2017-05-22T07:20:54.092Z,560
2017-05-22T07:21:34.700Z,560
2017-05-22T07:22:15.321Z,560
2017-05-22T07:22:55.907Z,555
2017-05-22T07:23:36.487Z,555
2017-05-22T07:24:17.086Z,555
2017-05-22T07:24:57.671Z,555
2017-05-22T07:25:38.266Z,550
2017-05-22T07:26:18.877Z,555
2017-05-22T07:26:59.480Z,555
2017-05-22T07:27:40.082Z,555
2017-05-22T07:28:20.672Z,555
2017-05-22T07:29:01.271Z,545
2017-05-22T07:29:41.926Z,535
2017-05-22T07:30:22.493Z,530
2017-05-22T07:31:03.092Z,530
2017-05-22T07:31:43.703Z,535
2017-05-22T07:32:24.278Z,535
2017-05-22T07:33:04.877Z,535
2017-05-22T07:33:45.476Z,540
2017-05-22T07:34:26.066Z,535
2017-05-22T07:35:06.647Z,530
2017-05-22T07:35:47.301Z,530
2017-05-22T07:36:27.886Z,525
2017-05-22T07:37:08.501Z,515
2017-05-22T07:37:49.122Z,510
2017-05-22T07:38:29.748Z,510
2017-05-22T07:39:10.349Z,510
2017-05-22T07:39:50.928Z,510
2017-05-22T07:40:31.519Z,500
2017-05-22T07:41:12.126Z,500
2017-05-22T07:41:52.708Z,505
2017-05-22T07:42:33.318Z,500
2017-05-22T07:43:13.965Z,505
2017-05-22T07:43:54.545Z,505
2017-05-22T07:44:35.112Z,505
2017-05-22T07:45:15.712Z,505
2017-05-22T07:45:56.307Z,505
2017-05-22T07:46:36.914Z,510
2017-05-22T07:47:17.502Z,510
2017-05-22T07:47:58.094Z,515
2017-05-22T07:48:38.729Z,520
2017-05-22T07:49:19.329Z,520
2017-05-22T07:49:59.924Z,520
2017-05-22T07:50:40.530Z,525
2017-05-22T07:51:21.105Z,525
2017-05-22T07:52:01.691Z,530
2017-05-22T07:52:42.287Z,525
2017-05-22T07:53:22.895Z,520
2017-05-22T07:54:03.490Z,520
2017-05-22T07:54:44.071Z,510
2017-05-22T07:55:24.666Z,500
2017-05-22T07:56:05.320Z,485
2017-05-22T07:56:45.901Z,460
2017-05-22T07:57:26.478Z,435
2017-05-22T07:58:07.067Z,405
2017-05-22T07:58:47.643Z,400
2017-05-22T07:59:28.251Z,395
2017-05-22T08:00:08.845Z,395
2017-05-22T08:00:49.516Z,395
2017-05-22T08:01:30.124Z,395
2017-05-22T08:02:10.725Z,385
2017-05-22T08:02:51.313Z,380
2017-05-22T08:03:31.904Z,380
2017-05-22T08:04:12.514Z,380
2017-05-22T08:04:53.088Z,375
2017-05-22T08:05:33.690Z,375
2017-05-22T08:06:14.272Z,370
2017-05-22T08:06:54.881Z,365
2017-05-22T08:07:35.472Z,360
2017-05-22T08:08:16.062Z,360
2017-05-22T08:08:56.657Z,355
2017-05-22T08:09:37.225Z,355
2017-05-22T08:10:17.824Z,355
2017-05-22T08:10:58.409Z,345
2017-05-22T08:11:39.001Z,345
2017-05-22T08:12:19.646Z,335
2017-05-22T08:13:00.238Z,335
2017-05-22T08:13:40.815Z,330
2017-05-22T08:14:21.410Z,325
2017-05-22T08:15:01.984Z,320
2017-05-22T08:15:42.565Z,320
2017-05-22T08:16:23.148Z,315
2017-05-22T08:17:03.727Z,310
2017-05-22T08:17:44.313Z,310
2017-05-22T08:18:24.915Z,305
2017-05-22T08:19:05.529Z,300
2017-05-22T08:19:46.104Z,300
2017-05-22T08:20:26.720Z,295
2017-05-22T08:21:07.297Z,290
2017-05-22T08:21:47.898Z,285
2017-05-22T08:22:28.494Z,285
2017-05-22T08:23:09.110Z,280
2017-05-22T08:23:49.717Z,280
2017-05-22T08:24:30.327Z,285
2017-05-22T08:25:10.916Z,280
2017-05-22T08:25:51.524Z,275
2017-05-22T08:26:32.140Z,275
2017-05-22T08:27:12.746Z,270
2017-05-22T08:27:53.341Z,270
2017-05-22T08:28:33.939Z,265
2017-05-22T08:29:14.530Z,260
2017-05-22T08:29:55.138Z,255
2017-05-22T08:30:35.755Z,255
2017-05-22T08:31:16.370Z,250
2017-05-22T08:31:56.972Z,250
2017-05-22T08:32:37.552Z,245
2017-05-22T08:33:18.144Z,240
2017-05-22T08:33:58.736Z,240
2017-05-22T08:34:39.329Z,235
2017-05-22T08:35:19.940Z,235
2017-05-22T08:36:00.562Z,230
2017-05-22T08:36:41.161Z,235
2017-05-22T08:37:21.774Z,235
2017-05-22T08:38:02.366Z,230
2017-05-22T08:38:42.969Z,230
2017-05-22T08:39:23.554Z,235
2017-05-22T08:40:04.156Z,230
2017-05-22T08:40:44.720Z,225
2017-05-22T08:41:25.288Z,230
2017-05-22T08:42:05.864Z,225
2017-05-22T08:42:46.460Z,220
2017-05-22T08:43:27.042Z,220
2017-05-22T08:44:07.676Z,215
2017-05-22T08:44:48.281Z,215
2017-05-22T08:45:28.883Z,210
2017-05-22T08:46:09.515Z,210
2017-05-22T08:46:50.107Z,210
2017-05-22T08:47:30.693Z,210
2017-05-22T08:48:11.268Z,210
2017-05-22T08:48:51.864Z,205
2017-05-22T08:49:32.452Z,205
2017-05-22T08:50:13.029Z,210
2017-05-22T08:50:53.634Z,215
2017-05-22T08:51:34.263Z,210
2017-05-22T08:52:14.929Z,210
2017-05-22T08:52:55.427Z,210
2017-05-22T08:53:36.020Z,205
2017-05-22T08:54:16.594Z,205
2017-05-22T08:54:57.198Z,205
2017-05-22T08:55:37.793Z,205
2017-05-22T08:56:18.467Z,200
2017-05-22T08:56:59.037Z,200
2017-05-22T08:57:39.671Z,200
2017-05-22T08:58:20.255Z,200
2017-05-22T08:59:00.853Z,205
2017-05-22T08:59:41.437Z,210
2017-05-22T09:00:22.161Z,215
2017-05-22T09:01:02.775Z,215
2017-05-22T09:01:43.370Z,210
2017-05-22T09:02:23.966Z,205
2017-05-22T09:03:04.565Z,200
2017-05-22T09:03:45.202Z,195
2017-05-22T09:04:25.769Z,190
2017-05-22T09:05:06.373Z,185
2017-05-22T09:05:46.972Z,175
2017-05-22T09:06:27.567Z,170
2017-05-22T09:07:08.349Z,130
2017-05-22T09:07:48.997Z,130
2017-05-22T09:08:29.573Z,130
2017-05-22T09:09:10.155Z,130
2017-05-22T09:09:50.778Z,125
2017-05-22T09:10:31.377Z,125
2017-05-22T09:11:11.971Z,125
2017-05-22T09:11:52.579Z,130
2017-05-22T09:12:33.166Z,135
2017-05-22T09:13:13.762Z,135
2017-05-22T09:13:54.336Z,145
2017-05-22T09:14:34.955Z,170
2017-05-22T09:15:15.532Z,155
2017-05-22T09:15:56.129Z,150
2017-05-22T09:16:36.707Z,165
2017-05-22T09:17:17.294Z,185
2017-05-22T09:17:57.891Z,185
2017-05-22T09:18:39.454Z,185
2017-05-22T09:19:20.054Z,185
2017-05-22T09:20:00.651Z,185
2017-05-22T09:20:41.226Z,185
2017-05-22T09:21:21.804Z,185
2017-05-22T09:22:02.416Z,190
2017-05-22T09:22:43.010Z,190
2017-05-22T09:23:23.593Z,190
2017-05-22T09:24:04.167Z,185
2017-05-22T09:24:44.783Z,185
2017-05-22T09:25:25.373Z,180
2017-05-22T09:26:05.972Z,180
2017-05-22T09:26:46.580Z,180
2017-05-22T09:27:27.188Z,180
2017-05-22T09:28:07.781Z,180
2017-05-22T09:28:48.405Z,185
2017-05-22T09:29:28.970Z,180
2017-05-22T09:30:09.572Z,180
2017-05-22T09:30:50.177Z,180
2017-05-22T09:31:30.764Z,175
2017-05-22T09:32:11.380Z,175
2017-05-22T09:32:51.954Z,175
2017-05-22T09:33:32.531Z,175
2017-05-22T09:34:13.128Z,175
2017-05-22T09:34:53.758Z,175
2017-05-22T09:35:34.361Z,175
2017-05-22T09:36:14.948Z,175